createdAt,value
2016-12-01T00:00:29.083Z,81.81
2016-12-01T00:01:45.246Z,82.04
2016-12-01T00:03:01.651Z,82.09
2016-12-01T00:04:18.390Z,82.13
2016-12-01T00:05:33.264Z,81.94
2016-12-01T00:06:48.449Z,82.32
2016-12-01T00:08:03.242Z,81.99
2016-12-01T00:09:18.381Z,81.99
2016-12-01T00:10:33.106Z,81.94
2016-12-01T00:11:49.833Z,82.32
2016-12-01T00:13:03.458Z,82.32
2016-12-01T00:14:20.127Z,81.47
2016-12-01T00:15:36.863Z,81.47
2016-12-01T00:16:51.454Z,82.13
2016-12-01T00:18:08.432Z,81.47
2016-12-01T00:19:24.414Z,81.43
2016-12-01T00:20:38.961Z,82.13
2016-12-01T00:21:54.150Z,82.32
2016-12-01T00:23:07.478Z,82.13
2016-12-01T00:24:20.983Z,82.32
2016-12-01T00:25:37.313Z,82.13
2016-12-01T00:26:52.328Z,82.04
2016-12-01T00:28:06.784Z,82.32
2016-12-01T00:29:23.076Z,81.47
2016-12-01T00:30:38.970Z,81.66
2016-12-01T00:31:52.334Z,81.56
2016-12-01T00:33:09.042Z,81.47
2016-12-01T00:34:25.183Z,81.56
2016-12-01T00:35:41.492Z,81.27
2016-12-01T00:36:57.660Z,82.32
2016-12-01T00:38:12.702Z,82.32
2016-12-01T00:39:23.254Z,82.13
2016-12-01T00:40:38.776Z,81.85
2016-12-01T00:41:53.427Z,82.23
2016-12-01T00:43:08.186Z,82.13
2016-12-01T00:44:21.613Z,82.32
2016-12-01T00:45:37.833Z,82.04
2016-12-01T00:46:53.771Z,82.13
2016-12-01T00:48:09.690Z,82.13
2016-12-01T00:49:25.729Z,82.04
2016-12-01T00:50:40.985Z,81.94
2016-12-01T00:51:54.818Z,82.13
2016-12-01T00:53:10.958Z,82.13
2016-12-01T00:54:27.361Z,82.51
2016-12-01T00:55:43.674Z,81.94
2016-12-01T00:56:58.411Z,82.42
2016-12-01T00:58:12.692Z,82.32
2016-12-01T00:59:28.689Z,81.94
2016-12-01T01:00:44.992Z,82.09
2016-12-01T01:01:59.712Z,82.42
2016-12-01T01:03:14.092Z,82.51
2016-12-01T01:04:27.325Z,82.13
2016-12-01T01:05:41.807Z,82.04
2016-12-01T01:06:57.797Z,82.13
2016-12-01T01:08:13.852Z,81.94
2016-12-01T01:09:29.355Z,81.85
2016-12-01T01:10:45.570Z,82.32
2016-12-01T01:12:00.363Z,82.32
2016-12-01T01:13:16.620Z,82.13
2016-12-01T01:14:31.781Z,82.32
2016-12-01T01:15:45.826Z,82.13
2016-12-01T01:17:01.118Z,82.13
2016-12-01T01:18:15.769Z,82.04
2016-12-01T01:19:30.936Z,82.18
2016-12-01T01:20:45.883Z,82.32
2016-12-01T01:22:02.106Z,82.42
2016-12-01T01:23:16.057Z,82.32
2016-12-01T01:24:30.564Z,81.85
2016-12-01T01:25:47.136Z,81.99
2016-12-01T01:27:00.668Z,81.94
2016-12-01T01:28:14.968Z,82.23
2016-12-01T01:29:29.690Z,82.13
2016-12-01T01:30:45.600Z,82.04
2016-12-01T01:32:02.344Z,82.32
2016-12-01T01:33:17.984Z,82.09
2016-12-01T01:34:32.591Z,82.09
2016-12-01T01:35:49.701Z,82.47
2016-12-01T01:37:02.529Z,82.47
2016-12-01T01:38:18.953Z,82.28
2016-12-01T01:39:34.600Z,82.94
2016-12-01T01:40:51.273Z,83.04
2016-12-01T01:42:06.483Z,82.66
2016-12-01T01:43:22.889Z,82.66
2016-12-01T01:44:39.085Z,82.94
2016-12-01T01:45:53.157Z,82.37
2016-12-01T01:47:07.565Z,82.94
2016-12-01T01:48:21.428Z,82.89
2016-12-01T01:49:36.115Z,82.85
2016-12-01T01:50:52.820Z,82.89
2016-12-01T01:52:07.531Z,82.85
2016-12-01T01:53:19.063Z,82.18
2016-12-01T01:54:35.317Z,82.42
2016-12-01T01:55:49.778Z,82.51
2016-12-01T01:57:06.078Z,82.51
2016-12-01T01:58:22.253Z,82.28
2016-12-01T01:59:37.488Z,82.37
2016-12-01T02:00:53.779Z,83.08
2016-12-01T02:02:09.129Z,82.79
2016-12-01T02:03:24.538Z,82.98
2016-12-01T02:04:40.564Z,82.89
2016-12-01T02:05:56.115Z,82.85
2016-12-01T02:07:12.591Z,82.89
2016-12-01T02:08:26.642Z,82.66
2016-12-01T02:09:42.293Z,82.7
2016-12-01T02:10:57.966Z,83.04
2016-12-01T02:12:12.602Z,82.85
2016-12-01T02:13:24.814Z,82.7
2016-12-01T02:14:39.067Z,83.32
2016-12-01T02:15:55.649Z,83.17
2016-12-01T02:17:11.708Z,83.04
2016-12-01T02:18:27.351Z,82.75
2016-12-01T02:19:40.119Z,83.04
2016-12-01T02:20:56.315Z,83.32
2016-12-01T02:22:12.360Z,83.36
2016-12-01T02:23:25.462Z,83.32
2016-12-01T02:24:38.989Z,82.98
2016-12-01T02:25:53.529Z,82.98
2016-12-01T02:27:08.500Z,82.7
2016-12-01T02:28:22.925Z,82.7
2016-12-01T02:29:37.756Z,82.51
2016-12-01T02:30:54.085Z,83.08
2016-12-01T02:32:09.516Z,82.89
2016-12-01T02:33:23.093Z,82.79
2016-12-01T02:34:36.621Z,82.7
2016-12-01T02:35:51.397Z,82.51
2016-12-01T02:37:04.190Z,82.79
2016-12-01T02:38:17.691Z,82.79
2016-12-01T02:39:33.744Z,82.98
2016-12-01T02:40:49.629Z,82.79
2016-12-01T02:42:05.698Z,82.98
2016-12-01T02:43:22.436Z,82.79
2016-12-01T02:44:37.123Z,82.7
2016-12-01T02:45:51.823Z,82.89
2016-12-01T02:47:06.496Z,82.7
2016-12-01T02:48:19.976Z,82.7
2016-12-01T02:49:34.693Z,82.7
2016-12-01T02:50:49.783Z,83.46
2016-12-01T02:52:04.240Z,83.17
2016-12-01T02:53:17.678Z,83.17
2016-12-01T02:54:32.516Z,83.08
2016-12-01T02:55:45.524Z,83.27
2016-12-01T02:57:01.740Z,84.03
2016-12-01T02:58:18.516Z,83.84
2016-12-01T02:59:33.292Z,83.8
2016-12-01T03:00:50.274Z,84.08
2016-12-01T03:02:05.964Z,83.84
2016-12-01T03:03:19.466Z,83.94
2016-12-01T03:04:32.531Z,84.03
2016-12-01T03:05:48.166Z,83.36
2016-12-01T03:07:03.983Z,83.27
2016-12-01T03:08:20.167Z,83.65
2016-12-01T03:09:36.346Z,83.36
2016-12-01T03:10:49.295Z,83.36
2016-12-01T03:12:05.180Z,83.65
2016-12-01T03:13:20.212Z,83.27
2016-12-01T03:14:34.932Z,83.08
2016-12-01T03:15:48.585Z,83.08
2016-12-01T03:17:02.898Z,83.36
2016-12-01T03:18:15.950Z,82.98
2016-12-01T03:19:32.484Z,83.36
2016-12-01T03:20:46.029Z,83.17
2016-12-01T03:22:00.820Z,82.98
2016-12-01T03:23:16.757Z,82.7
2016-12-01T03:24:28.370Z,83.08
2016-12-01T03:25:41.667Z,83.27
2016-12-01T03:26:57.183Z,83.27
2016-12-01T03:28:11.865Z,83.36
2016-12-01T03:29:27.684Z,83.27
2016-12-01T03:30:44.444Z,83.74
2016-12-01T03:31:55.904Z,83.84
2016-12-01T03:33:10.983Z,83.84
2016-12-01T03:34:24.042Z,83.55
2016-12-01T03:35:40.138Z,83.65
2016-12-01T03:36:52.062Z,83.65
2016-12-01T03:38:06.812Z,83.74
2016-12-01T03:39:21.898Z,83.74
2016-12-01T03:40:35.272Z,83.74
2016-12-01T03:41:51.221Z,83.65
2016-12-01T03:43:06.871Z,83.74
2016-12-01T03:44:22.125Z,83.65
2016-12-01T03:45:36.842Z,83.74
2016-12-01T03:46:51.117Z,83.65
2016-12-01T03:48:06.846Z,83.74
2016-12-01T03:49:23.006Z,83.84
2016-12-01T03:50:38.974Z,84.31
2016-12-01T03:51:53.823Z,84.03
2016-12-01T03:53:08.668Z,83.65
2016-12-01T03:54:23.741Z,83.65
2016-12-01T03:55:38.862Z,83.84
2016-12-01T03:56:53.682Z,83.74
2016-12-01T03:58:09.597Z,83.65
2016-12-01T03:59:23.635Z,83.65
2016-12-01T04:00:38.016Z,83.65
2016-12-01T04:01:53.665Z,83.74
2016-12-01T04:03:10.246Z,83.27
2016-12-01T04:04:24.895Z,83.55
2016-12-01T04:05:41.373Z,84.12
2016-12-01T04:06:56.881Z,83.55
2016-12-01T04:08:11.217Z,83.74
2016-12-01T04:09:27.593Z,83.84
2016-12-01T04:10:40.341Z,83.46
2016-12-01T04:11:55.610Z,83.84
2016-12-01T04:13:10.037Z,83.84
2016-12-01T04:14:24.999Z,83.94
2016-12-01T04:15:40.924Z,83.84
2016-12-01T04:16:53.961Z,83.74
2016-12-01T04:18:07.665Z,83.74
2016-12-01T04:19:22.283Z,83.84
2016-12-01T04:20:35.151Z,83.94
2016-12-01T04:21:50.013Z,84.03
2016-12-01T04:23:06.555Z,83.74
2016-12-01T04:24:22.848Z,83.55
2016-12-01T04:25:38.729Z,83.55
2016-12-01T04:26:51.779Z,83.65
2016-12-01T04:28:05.765Z,83.65
2016-12-01T04:29:19.672Z,84.03
2016-12-01T04:30:35.238Z,83.65
2016-12-01T04:31:49.612Z,83.84
2016-12-01T04:33:04.465Z,83.84
2016-12-01T04:34:19.064Z,83.94
2016-12-01T04:35:32.287Z,83.74
2016-12-01T04:36:44.339Z,83.65
2016-12-01T04:38:00.576Z,83.74
2016-12-01T04:39:15.513Z,83.94
2016-12-01T04:40:29.114Z,83.84
2016-12-01T04:41:43.758Z,84.31
2016-12-01T04:42:59.851Z,84.22
2016-12-01T04:44:14.740Z,84.22
2016-12-01T04:45:30.949Z,84.5
2016-12-01T04:46:46.305Z,84.31
2016-12-01T04:48:02.225Z,84.59
2016-12-01T04:49:18.396Z,84.69
2016-12-01T04:50:34.280Z,84.59
2016-12-01T04:51:50.073Z,84.88
2016-12-01T04:53:06.374Z,84.69
2016-12-01T04:54:19.592Z,84.69
2016-12-01T04:55:35.699Z,84.78
2016-12-01T04:56:49.278Z,84.69
2016-12-01T04:58:02.750Z,85.36
2016-12-01T04:59:17.504Z,85.17
2016-12-01T05:00:32.388Z,84.98
2016-12-01T05:01:46.864Z,84.98
2016-12-01T05:03:03.048Z,85.07
2016-12-01T05:04:18.948Z,84.88
2016-12-01T05:05:33.388Z,85.07
2016-12-01T05:06:47.771Z,84.78
2016-12-01T05:08:00.989Z,85.74
2016-12-01T05:09:17.439Z,85.36
2016-12-01T05:10:33.430Z,85.36
2016-12-01T05:11:49.764Z,85.74
2016-12-01T05:13:05.804Z,85.17
2016-12-01T05:14:20.173Z,85.36
2016-12-01T05:15:31.894Z,84.78
2016-12-01T05:16:45.524Z,84.78
2016-12-01T05:17:59.729Z,85.07
2016-12-01T05:19:14.860Z,85.07
2016-12-01T05:20:30.757Z,84.98
2016-12-01T05:21:46.746Z,85.07
2016-12-01T05:22:59.975Z,84.98
2016-12-01T05:24:15.469Z,85.17
2016-12-01T05:25:31.612Z,84.98
2016-12-01T05:26:44.999Z,85.26
2016-12-01T05:27:59.420Z,85.17
2016-12-01T05:29:13.618Z,85.07
2016-12-01T05:30:29.960Z,84.69
2016-12-01T05:31:46.045Z,84.98
2016-12-01T05:33:01.430Z,84.98
2016-12-01T05:34:17.859Z,84.88
2016-12-01T05:35:34.673Z,85.07
2016-12-01T05:36:48.714Z,84.98
2016-12-01T05:38:04.198Z,85.26
2016-12-01T05:39:19.319Z,84.98
2016-12-01T05:40:32.051Z,85.17
2016-12-01T05:41:46.804Z,85.36
2016-12-01T05:43:03.024Z,84.88
2016-12-01T05:44:18.768Z,85.36
2016-12-01T05:45:33.983Z,84.88
2016-12-01T05:46:48.266Z,85.36
2016-12-01T05:48:01.441Z,85.07
2016-12-01T05:49:14.872Z,85.17
2016-12-01T05:50:30.381Z,85.17
2016-12-01T05:51:46.432Z,84.98
2016-12-01T05:53:02.169Z,85.17
2016-12-01T05:54:17.160Z,85.17
2016-12-01T05:55:33.537Z,84.98
2016-12-01T05:56:49.427Z,85.07
2016-12-01T05:58:04.281Z,85.17
2016-12-01T05:59:19.626Z,85.02
2016-12-01T06:00:34.853Z,84.98
2016-12-01T06:01:49.348Z,85.17
2016-12-01T06:03:03.216Z,85.07
2016-12-01T06:04:19.121Z,85.07
2016-12-01T06:05:34.044Z,84.88
2016-12-01T06:06:48.879Z,85.55
2016-12-01T06:08:03.637Z,85.26
2016-12-01T06:09:19.694Z,85.36
2016-12-01T06:10:35.633Z,85.07
2016-12-01T06:11:49.233Z,84.92
2016-12-01T06:13:05.828Z,85.21
2016-12-01T06:14:19.836Z,84.83
2016-12-01T06:15:33.316Z,85.02
2016-12-01T06:16:48.551Z,85.17
2016-12-01T06:18:02.989Z,85.17
2016-12-01T06:19:19.085Z,85.11
2016-12-01T06:20:33.971Z,85.26
2016-12-01T06:21:49.905Z,85.17
2016-12-01T06:23:05.170Z,85.17
2016-12-01T06:24:21.496Z,85.07
2016-12-01T06:25:37.375Z,84.98
2016-12-01T06:26:52.900Z,85.26
2016-12-01T06:28:09.216Z,85.36
2016-12-01T06:29:25.311Z,85.36
2016-12-01T06:30:41.448Z,85.45
2016-12-01T06:31:57.735Z,85.17
2016-12-01T06:33:14.460Z,85.3
2016-12-01T06:34:29.191Z,85.11
2016-12-01T06:35:43.772Z,85.21
2016-12-01T06:37:00.684Z,85.3
2016-12-01T06:38:15.585Z,85.59
2016-12-01T06:39:32.302Z,84.92
2016-12-01T06:40:48.415Z,85.49
2016-12-01T06:42:04.501Z,84.98
2016-12-01T06:43:20.425Z,85.49
2016-12-01T06:44:36.458Z,85.4
2016-12-01T06:45:50.871Z,85.4
2016-12-01T06:47:04.000Z,85.3
2016-12-01T06:48:18.496Z,85.4
2016-12-01T06:49:34.682Z,85.21
2016-12-01T06:50:49.377Z,85.78
2016-12-01T06:52:05.707Z,85.11
2016-12-01T06:53:20.145Z,85.02
2016-12-01T06:54:36.461Z,85.59
2016-12-01T06:55:51.395Z,85.3
2016-12-01T06:57:07.308Z,85.49
2016-12-01T06:58:22.391Z,85.11
2016-12-01T06:59:38.826Z,85.87
2016-12-01T07:00:53.551Z,85.78
2016-12-01T07:02:08.778Z,85.78
2016-12-01T07:03:25.071Z,85.59
2016-12-01T07:04:39.507Z,85.78
2016-12-01T07:05:55.517Z,85.87
2016-12-01T07:07:10.486Z,86.07
2016-12-01T07:08:26.425Z,85.78
2016-12-01T07:09:41.298Z,85.78
2016-12-01T07:10:57.406Z,85.87
2016-12-01T07:12:13.395Z,86.07
2016-12-01T07:13:27.824Z,85.87
2016-12-01T07:14:43.951Z,86.07
2016-12-01T07:16:00.276Z,85.87
2016-12-01T07:17:13.890Z,85.59
2016-12-01T07:18:30.187Z,85.78
2016-12-01T07:19:46.277Z,85.59
2016-12-01T07:21:02.956Z,85.97
2016-12-01T07:22:17.413Z,85.97
2016-12-01T07:23:32.388Z,85.97
2016-12-01T07:24:47.862Z,85.78
2016-12-01T07:26:02.538Z,85.87
2016-12-01T07:27:17.041Z,84.92
2016-12-01T07:28:28.965Z,85.11
2016-12-01T07:29:44.462Z,85.87
2016-12-01T07:30:58.990Z,85.97
2016-12-01T07:32:13.636Z,85.3
2016-12-01T07:33:29.075Z,85.68
2016-12-01T07:34:43.690Z,85.87
2016-12-01T07:35:58.135Z,85.87
2016-12-01T07:37:12.854Z,85.21
2016-12-01T07:38:28.759Z,85.87
2016-12-01T07:39:41.992Z,85.21
2016-12-01T07:40:56.892Z,85.11
2016-12-01T07:42:13.021Z,84.83
2016-12-01T07:43:28.380Z,85.59
2016-12-01T07:44:44.974Z,85.4
2016-12-01T07:46:00.293Z,85.68
2016-12-01T07:47:13.519Z,85.68
2016-12-01T07:48:28.803Z,85.59
2016-12-01T07:49:42.209Z,85.87
2016-12-01T07:50:56.702Z,86.07
2016-12-01T07:52:12.351Z,85.97
2016-12-01T07:53:26.754Z,85.59
2016-12-01T07:54:41.548Z,85.87
2016-12-01T07:55:58.740Z,85.68
2016-12-01T07:57:12.411Z,85.78
2016-12-01T07:58:26.450Z,85.78
2016-12-01T07:59:41.345Z,85.87
2016-12-01T08:00:54.412Z,85.68
2016-12-01T08:02:10.095Z,85.97
2016-12-01T08:03:26.630Z,85.4
2016-12-01T08:04:43.395Z,85.59
2016-12-01T08:05:58.095Z,86.07
2016-12-01T08:07:14.662Z,85.87
2016-12-01T08:08:27.708Z,85.97
2016-12-01T08:09:43.880Z,85.49
2016-12-01T08:10:58.705Z,85.78
2016-12-01T08:12:13.684Z,85.78
2016-12-01T08:13:28.830Z,85.97
2016-12-01T08:14:45.085Z,86.16
2016-12-01T08:15:59.756Z,86.63
2016-12-01T08:17:16.438Z,85.63
2016-12-01T08:18:32.478Z,85.91
2016-12-01T08:19:47.007Z,84.87
2016-12-01T08:21:01.470Z,83.92
2016-12-01T08:22:16.465Z,83.83
2016-12-01T08:23:32.829Z,84.01
2016-12-01T08:24:46.510Z,83.92
2016-12-01T08:26:03.012Z,84.01
2016-12-01T08:27:19.242Z,84.11
2016-12-01T08:28:34.026Z,84.21
2016-12-01T08:29:50.476Z,84.17
2016-12-01T08:31:06.932Z,84.3
2016-12-01T08:32:22.006Z,84.74
2016-12-01T08:33:36.622Z,84.74
2016-12-01T08:34:50.165Z,85.49
2016-12-01T08:36:04.878Z,84.92
2016-12-01T08:37:21.232Z,85.02
2016-12-01T08:38:37.781Z,85.21
2016-12-01T08:39:50.816Z,85.3
2016-12-01T08:41:06.307Z,85.3
2016-12-01T08:42:22.188Z,85.21
2016-12-01T08:43:36.807Z,85.11
2016-12-01T08:44:53.366Z,84.64
2016-12-01T08:46:09.809Z,84.59
2016-12-01T08:47:21.755Z,84.59
2016-12-01T08:48:34.770Z,84.59
2016-12-01T08:49:51.299Z,84.78
2016-12-01T08:51:07.458Z,84.4
2016-12-01T08:52:20.119Z,84.59
2016-12-01T08:53:36.688Z,84.21
2016-12-01T08:54:53.412Z,83.83
2016-12-01T08:56:09.311Z,83.73
2016-12-01T08:57:22.698Z,83.64
2016-12-01T08:58:39.225Z,83.16
2016-12-01T08:59:55.324Z,83.07
2016-12-01T09:01:10.192Z,83.16
2016-12-01T09:02:26.240Z,83.07
2016-12-01T09:03:41.917Z,83.26
2016-12-01T09:04:56.788Z,83.45
2016-12-01T09:06:12.581Z,83.36
2016-12-01T09:07:28.753Z,83.45
2016-12-01T09:08:43.871Z,83.26
2016-12-01T09:09:59.743Z,83.26
2016-12-01T09:11:15.350Z,83.54
2016-12-01T09:12:26.998Z,84.11
2016-12-01T09:13:42.262Z,83.73
2016-12-01T09:14:58.928Z,83.92
2016-12-01T09:16:14.447Z,84.4
2016-12-01T09:17:27.570Z,83.83
2016-12-01T09:18:43.170Z,83.92
2016-12-01T09:19:59.476Z,84.11
2016-12-01T09:21:15.521Z,84.59
2016-12-01T09:22:30.990Z,84.49
2016-12-01T09:23:46.523Z,84.87
2016-12-01T09:25:01.028Z,84.78
2016-12-01T09:26:17.088Z,84.59
2016-12-01T09:27:30.386Z,84.87
2016-12-01T09:28:45.668Z,84.21
2016-12-01T09:30:01.823Z,83.92
2016-12-01T09:31:14.905Z,84.01
2016-12-01T09:32:28.097Z,83.83
2016-12-01T09:33:43.987Z,84.21
2016-12-01T09:34:56.024Z,83.92
2016-12-01T09:36:11.909Z,84.11
2016-12-01T09:37:28.036Z,84.11
2016-12-01T09:38:44.134Z,84.21
2016-12-01T09:40:00.127Z,84.21
2016-12-01T09:41:14.668Z,84.3
2016-12-01T09:42:28.078Z,84.49
2016-12-01T09:43:41.464Z,84.01
2016-12-01T09:44:54.790Z,83.83
2016-12-01T09:46:11.207Z,84.11
2016-12-01T09:47:27.739Z,84.11
2016-12-01T09:48:43.808Z,84.3
2016-12-01T09:49:58.669Z,84.87
2016-12-01T09:51:14.873Z,84.78
2016-12-01T09:52:28.763Z,84.68
2016-12-01T09:53:44.946Z,84.97
2016-12-01T09:55:01.395Z,84.87
2016-12-01T09:56:14.762Z,84.59
2016-12-01T09:57:30.249Z,84.21
2016-12-01T09:58:47.075Z,84.21
2016-12-01T10:00:03.626Z,84.21
2016-12-01T10:01:20.574Z,84.21
2016-12-01T10:02:35.063Z,84.4
2016-12-01T10:03:49.971Z,84.4
2016-12-01T10:05:05.808Z,84.11
2016-12-01T10:06:22.388Z,83.83
2016-12-01T10:07:38.798Z,83.64
2016-12-01T10:08:54.503Z,84.01
2016-12-01T10:10:07.985Z,84.21
2016-12-01T10:11:24.044Z,84.21
2016-12-01T10:12:38.575Z,84.21
2016-12-01T10:13:54.754Z,84.21
2016-12-01T10:15:11.106Z,83.92
2016-12-01T10:16:26.618Z,83.83
2016-12-01T10:17:43.581Z,83.92
2016-12-01T10:19:00.211Z,84.11
2016-12-01T10:20:15.133Z,83.83
2016-12-01T10:21:32.107Z,84.01
2016-12-01T10:22:45.405Z,83.73
2016-12-01T10:24:01.354Z,83.49
2016-12-01T10:25:17.652Z,83.11
2016-12-01T10:26:32.153Z,83.11
2016-12-01T10:27:45.623Z,83.2
2016-12-01T10:29:00.926Z,83.3
2016-12-01T10:30:15.790Z,83.2
2016-12-01T10:31:28.133Z,83.2
2016-12-01T10:32:43.355Z,83.2
2016-12-01T10:33:58.721Z,83.01
2016-12-01T10:35:12.173Z,83.3
2016-12-01T10:36:28.479Z,83.11
2016-12-01T10:37:43.209Z,83.3
2016-12-01T10:38:57.097Z,82.92
2016-12-01T10:40:13.151Z,83.11
2016-12-01T10:41:29.294Z,83.11
2016-12-01T10:42:45.148Z,83.11
2016-12-01T10:43:59.753Z,82.92
2016-12-01T10:45:16.696Z,83.49
2016-12-01T10:46:29.945Z,83.3
2016-12-01T10:47:43.839Z,83.2
2016-12-01T10:48:57.329Z,83.11
2016-12-01T10:50:12.253Z,83.11
2016-12-01T10:51:25.462Z,83.3
2016-12-01T10:52:39.254Z,83.3
2016-12-01T10:53:53.952Z,83.49
2016-12-01T10:55:07.646Z,83.39
2016-12-01T10:56:24.348Z,83.3
2016-12-01T10:57:39.999Z,83.49
2016-12-01T10:58:55.349Z,83.59
2016-12-01T11:00:11.032Z,82.73
2016-12-01T11:01:26.144Z,83.11
2016-12-01T11:02:41.944Z,83.3
2016-12-01T11:03:57.887Z,83.59
2016-12-01T11:05:12.685Z,83.11
2016-12-01T11:06:25.942Z,82.73
2016-12-01T11:07:42.101Z,82.64
2016-12-01T11:08:58.683Z,83.2
2016-12-01T11:10:12.147Z,82.54
2016-12-01T11:11:26.656Z,82.45
2016-12-01T11:12:42.331Z,82.35
2016-12-01T11:13:58.467Z,82.16
2016-12-01T11:15:14.606Z,82.35
2016-12-01T11:16:28.027Z,82.16
2016-12-01T11:17:40.081Z,82.26
2016-12-01T11:18:55.734Z,81.97
2016-12-01T11:20:10.681Z,82.26
2016-12-01T11:21:25.415Z,82.07
2016-12-01T11:22:40.003Z,82.54
2016-12-01T11:23:55.325Z,82.26
2016-12-01T11:25:11.536Z,82.26
2016-12-01T11:26:26.121Z,81.49
2016-12-01T11:27:41.816Z,81.59
2016-12-01T11:28:56.937Z,81.16
2016-12-01T11:30:13.010Z,81.16
2016-12-01T11:31:27.985Z,81.16
2016-12-01T11:32:44.440Z,82.01
2016-12-01T11:33:59.248Z,81.44
2016-12-01T11:35:15.549Z,81.73
2016-12-01T11:36:30.431Z,81.35
2016-12-01T11:37:44.512Z,81.16
2016-12-01T11:39:01.367Z,81.16
2016-12-01T11:40:16.050Z,81.44
2016-12-01T11:41:32.415Z,81.25
2016-12-01T11:42:48.856Z,81.16
2016-12-01T11:44:05.452Z,81.63
2016-12-01T11:45:20.369Z,81.35
2016-12-01T11:46:33.921Z,81.44
2016-12-01T11:47:48.610Z,81.63
2016-12-01T11:49:04.249Z,80.77
2016-12-01T11:50:19.997Z,81.73
2016-12-01T11:51:33.058Z,81.73
2016-12-01T11:52:49.126Z,81.63
2016-12-01T11:54:03.881Z,81.82
2016-12-01T11:55:14.454Z,81.82
2016-12-01T11:56:30.951Z,81.82
2016-12-01T11:57:45.836Z,81.63
2016-12-01T11:59:02.862Z,81.44
2016-12-01T12:00:19.822Z,81.82
2016-12-01T12:01:35.220Z,81.92
2016-12-01T12:02:51.930Z,81.44
2016-12-01T12:04:07.097Z,81.82
2016-12-01T12:05:20.649Z,81.25
2016-12-01T12:06:33.964Z,81.73
2016-12-01T12:07:46.803Z,81.82
2016-12-01T12:09:02.950Z,81.44
2016-12-01T12:10:19.261Z,82.26
2016-12-01T12:11:34.202Z,82.16
2016-12-01T12:12:50.190Z,82.45
2016-12-01T12:14:04.404Z,82.54
2016-12-01T12:15:19.527Z,81.97
2016-12-01T12:16:35.831Z,82.68
2016-12-01T12:17:51.307Z,83.2
2016-12-01T12:19:04.517Z,82.92
2016-12-01T12:20:19.347Z,82.64
2016-12-01T12:21:32.983Z,83.49
2016-12-01T12:22:47.923Z,83.3
2016-12-01T12:24:03.820Z,83.2
2016-12-01T12:25:17.093Z,83.59
2016-12-01T12:26:30.722Z,83.59
2016-12-01T12:27:45.427Z,83.3
2016-12-01T12:29:01.510Z,83.3
2016-12-01T12:30:17.152Z,83.01
2016-12-01T12:31:33.706Z,83.11
2016-12-01T12:32:47.265Z,83.2
2016-12-01T12:34:01.398Z,83.3
2016-12-01T12:35:17.503Z,83.3
2016-12-01T12:36:33.006Z,83.2
2016-12-01T12:37:49.039Z,83.59
2016-12-01T12:39:05.859Z,83.39
2016-12-01T12:40:20.843Z,83.49
2016-12-01T12:41:35.438Z,83.2
2016-12-01T12:42:51.960Z,83.59
2016-12-01T12:44:07.877Z,83.49
2016-12-01T12:45:21.547Z,82.92
2016-12-01T12:46:36.127Z,83.11
2016-12-01T12:47:50.161Z,82.92
2016-12-01T12:49:06.202Z,83.59
2016-12-01T12:50:19.365Z,83.39
2016-12-01T12:51:33.821Z,83.59
2016-12-01T12:52:48.347Z,83.2
2016-12-01T12:54:03.273Z,83.2
2016-12-01T12:55:16.869Z,83.3
2016-12-01T12:56:31.980Z,83.3
2016-12-01T12:57:47.731Z,83.2
2016-12-01T12:59:04.112Z,83.82
2016-12-01T13:00:19.857Z,83.11
2016-12-01T13:01:36.817Z,83.2
2016-12-01T13:02:51.780Z,83.49
2016-12-01T13:04:08.355Z,83.59
2016-12-01T13:05:23.297Z,83.49
2016-12-01T13:06:38.030Z,83.59
2016-12-01T13:07:54.615Z,83.78
2016-12-01T13:09:10.065Z,83.49
2016-12-01T13:10:24.857Z,84.16
2016-12-01T13:11:41.596Z,83.97
2016-12-01T13:12:57.645Z,83.78
2016-12-01T13:14:11.722Z,83.97
2016-12-01T13:15:27.831Z,84.16
2016-12-01T13:16:43.940Z,83.87
2016-12-01T13:17:59.588Z,83.78
2016-12-01T13:19:14.622Z,83.97
